Elkhorn, West Virginia
Current Conditions -  °F | °C
As of 8:52 AM on Sunday 21 Dec 2014 (Local Time) from KBLF Reporting Station
Scattered Clouds Scattered Clouds  
Wind Chill:   Ceiling: Unl
Heat Index:   Visibility: 10mi
Dew Point: -3°   Wind: 0mph
Humidity: 78%   Direction: NA
Pressure: 30.22"   Gusts: NA
Location:  37.39°N, 81.41°W
Report Text: KBLF 211352Z AUTO 00000KT 10SM SCT018 01/M03 A3022 RMK AO2 SLP249 T00061028
Loading
Personal Weather Stations






























Interactive Weather Map New forecast layout! Learn more

10-Day Weather Forecast

Advertisements
Track Severe Weather on mobile